Time;durP1;ratioP1;P1;durP2;ratioP2;P2;SDS_P1;SDS_P2;PMS_P1;PMS_P2;Temp;Humidity;BMP_temperature;BMP_pressure;BME280_temperature;BME280_humidity;BME280_pressure;Samples;Min_cycle;Max_cycle;Signal;HPM_P1;HPM_P2
2021/08/07 00:01:53;;;;;;;;;;;;;;;21.40;45.82;95752.06;5086464;28;19916;-62
2021/08/07 00:04:19;;;;;;;;;;;;;;;21.46;46.17;95740.81;5075854;28;20363;-61
2021/08/07 00:06:44;;;;;;;;;;;;;;;21.32;45.78;95748.31;5095899;28;19912;-62
2021/08/07 00:09:10;;;;;;;;;;;;;;;21.38;46.21;95756.66;5096005;28;19962;-60
2021/08/07 00:11:35;;;;;;;;;;;;;;;21.44;46.12;95750.78;5082061;28;20363;-59
2021/08/07 00:14:01;;;;;;;;;;;;;;;21.47;45.80;95755.81;5080321;28;20278;-60
2021/08/07 00:16:26;;;;;;;;;;;;;;;21.43;45.94;95749.91;5077951;28;19916;-60
2021/08/07 00:18:51;;;;;;;;;;;;;;;21.45;46.01;95753.28;5088439;28;19962;-60
2021/08/07 00:21:17;;;;;;;;;;;;;;;21.39;46.26;95745.88;5094643;28;20277;-59
2021/08/07 00:23:43;;;;;;;;;;;;;;;21.37;46.15;95747.03;5095616;28;19941;-60
2021/08/07 00:26:08;;;;;;;;;;;;;;;21.34;46.35;95756.09;5087532;28;19923;-60
2021/08/07 00:28:33;;;;;;;;;;;;;;;21.17;46.55;95757.72;5095772;28;19912;-60
2021/08/07 00:30:59;;;;;;;;;;;;;;;21.15;46.79;95755.19;5078506;28;19916;-60
2021/08/07 00:33:24;;;;;;;;;;;;;;;21.02;46.82;95755.50;5095610;28;19912;-60
2021/08/07 00:35:50;;;;;;;;;;;;;;;21.01;46.98;95756.47;5093826;28;20384;-60
2021/08/07 00:38:15;;;;;;;;;;;;;;;21.06;46.79;95762.22;5095442;28;19919;-60
2021/08/07 00:40:41;;;;;;;;;;;;;;;21.06;46.86;95756.88;5087873;28;20019;-61
2021/08/07 00:43:10;;;;;;;;;;;;;;;20.91;47.34;95753.84;5074802;28;19916;-60
2021/08/07 00:45:35;;;;;;;;;;;;;;;20.86;46.86;95757.88;5076978;28;20293;-60
2021/08/07 00:48:01;;;;;;;;;;;;;;;20.89;47.33;95761.06;5080825;28;19916;-60
2021/08/07 00:50:26;;;;;;;;;;;;;;;20.89;47.15;95762.91;5094755;28;19985;-60
2021/08/07 00:52:52;;;;;;;;;;;;;;;20.86;47.12;95763.19;5095232;28;19912;-60
2021/08/07 00:55:17;;;;;;;;;;;;;;;20.93;47.29;95773.16;5080481;28;19967;-60
2021/08/07 00:57:43;;;;;;;;;;;;;;;20.94;47.28;95766.00;5062577;28;20357;-60
2021/08/07 01:00:08;;;;;;;;;;;;;;;20.94;47.01;95768.66;5094847;28;19922;-60
2021/08/07 01:02:34;;;;;;;;;;;;;;;20.86;47.57;95764.00;5094663;28;19934;-61
2021/08/07 01:05:05;;;;;;;;;;;;;;;20.82;47.16;95768.78;5095100;28;19919;-61
2021/08/07 01:07:35;;;;;;;;;;;;;;;20.90;47.26;95765.47;5078751;28;19999;-61
2021/08/07 01:10:19;;;;;;;;;;;;;;;20.81;47.34;95769.78;5075606;28;20263;-60
2021/08/07 01:12:56;;;;;;;;;;;;;;;20.82;47.35;95771.44;5094743;28;19912;-60
2021/08/07 01:15:23;;;;;;;;;;;;;;;20.81;47.43;95771.59;5079225;28;19922;-60
2021/08/07 01:17:49;;;;;;;;;;;;;;;20.83;47.33;95765.13;5092406;28;20361;-60
2021/08/07 01:20:17;;;;;;;;;;;;;;;20.86;47.31;95766.66;5092732;28;20012;-60
2021/08/07 01:22:45;;;;;;;;;;;;;;;20.86;47.29;95758.69;5094588;28;20011;-61
2021/08/07 01:25:14;;;;;;;;;;;;;;;20.80;47.74;95760.09;5081063;28;20015;-60
2021/08/07 01:27:40;;;;;;;;;;;;;;;20.77;47.83;95767.53;5088390;28;19916;-60
2021/08/07 01:30:07;;;;;;;;;;;;;;;20.87;47.22;95770.19;5083907;28;19923;-60
2021/08/07 01:32:34;;;;;;;;;;;;;;;20.81;48.01;95772.44;5094133;28;20007;-60
2021/08/07 01:34:59;;;;;;;;;;;;;;;20.67;47.82;95776.34;5093858;28;19919;-60
2021/08/07 01:37:25;;;;;;;;;;;;;;;20.61;48.05;95779.56;5079275;28;19916;-60
2021/08/07 01:39:53;;;;;;;;;;;;;;;20.66;47.56;95780.00;5074828;28;19916;-61
2021/08/07 01:42:19;;;;;;;;;;;;;;;20.64;47.51;95778.44;5087848;28;19931;-60
2021/08/07 01:44:44;;;;;;;;;;;;;;;20.55;47.57;95788.06;5092312;28;19917;-60
2021/08/07 01:47:15;;;;;;;;;;;;;;;20.62;47.88;95789.19;5092265;28;19923;-60
2021/08/07 01:49:53;;;;;;;;;;;;;;;20.56;47.72;95784.47;5094147;28;20009;-61
2021/08/07 01:52:22;;;;;;;;;;;;;;;20.61;47.70;95794.66;5093702;28;19919;-59
2021/08/07 01:54:52;;;;;;;;;;;;;;;20.67;47.65;95783.47;5086876;28;19916;-60
2021/08/07 01:57:20;;;;;;;;;;;;;;;20.60;47.72;95787.66;5074647;28;19916;-61
2021/08/07 01:59:47;;;;;;;;;;;;;;;20.63;47.37;95790.03;5073536;28;19912;-60
2021/08/07 02:02:13;;;;;;;;;;;;;;;20.56;47.31;95777.31;5073543;28;19916;-61
2021/08/07 02:04:39;;;;;;;;;;;;;;;20.55;47.50;95780.97;5073671;28;19912;-61
2021/08/07 02:07:05;;;;;;;;;;;;;;;20.57;47.57;95776.34;5073691;28;20270;-60
2021/08/07 02:09:30;;;;;;;;;;;;;;;20.64;47.30;95783.75;5074709;28;19924;-61
2021/08/07 02:11:56;;;;;;;;;;;;;;;20.65;47.22;95778.28;5089839;28;19922;-61
2021/08/07 02:14:22;;;;;;;;;;;;;;;20.57;47.50;95792.28;5092668;28;20006;-61
2021/08/07 02:16:48;;;;;;;;;;;;;;;20.64;47.30;95781.94;5093214;28;19951;-61
2021/08/07 02:19:13;;;;;;;;;;;;;;;20.68;46.97;95782.50;5078017;28;19959;-61
2021/08/07 02:21:40;;;;;;;;;;;;;;;20.68;47.14;95788.63;5093271;28;19912;-61
2021/08/07 02:24:05;;;;;;;;;;;;;;;20.70;47.08;95783.19;5093530;28;19908;-61
2021/08/07 02:26:31;;;;;;;;;;;;;;;20.61;47.34;95787.53;5079014;28;19939;-60
2021/08/07 02:28:57;;;;;;;;;;;;;;;20.63;47.47;95790.91;5091737;28;19916;-60
2021/08/07 02:31:23;;;;;;;;;;;;;;;20.53;47.82;95785.56;5093720;28;19919;-61
2021/08/07 02:33:49;;;;;;;;;;;;;;;20.50;47.56;95785.84;5093524;28;20490;-61
2021/08/07 02:36:15;;;;;;;;;;;;;;;20.47;47.88;95782.63;5093154;28;19939;-61
2021/08/07 02:38:41;;;;;;;;;;;;;;;20.50;48.51;95774.41;5093575;28;19912;-60
2021/08/07 02:41:07;;;;;;;;;;;;;;;20.48;48.58;95779.84;5086306;28;19923;-60
2021/08/07 02:43:33;;;;;;;;;;;;;;;20.47;47.99;95785.28;5074227;28;19916;-61
2021/08/07 02:45:58;;;;;;;;;;;;;;;20.42;48.28;95781.25;5077229;28;19939;-60
2021/08/07 02:48:24;;;;;;;;;;;;;;;20.47;48.03;95785.28;5079666;28;19960;-61
2021/08/07 02:50:50;;;;;;;;;;;;;;;20.30;48.68;95782.34;5095638;28;19942;-61
2021/08/07 02:53:16;;;;;;;;;;;;;;;20.36;48.22;95783.59;5097114;28;19912;-61
2021/08/07 02:55:41;;;;;;;;;;;;;;;20.37;48.37;95786.13;5089898;28;19920;-60
2021/08/07 02:58:07;;;;;;;;;;;;;;;20.32;48.31;95783.88;5077005;28;19909;-61
2021/08/07 03:00:33;;;;;;;;;;;;;;;20.24;48.86;95786.38;5077864;28;20026;-61
2021/08/07 03:02:59;;;;;;;;;;;;;;;20.26;48.84;95779.09;5076815;28;19913;-62
2021/08/07 03:05:24;;;;;;;;;;;;;;;20.22;49.38;95783.00;5077041;28;19970;-60
2021/08/07 03:07:49;;;;;;;;;;;;;;;20.23;49.06;95784.72;5077293;28;20354;-61
2021/08/07 03:10:15;;;;;;;;;;;;;;;20.17;49.27;95791.38;5076951;28;19923;-61
2021/08/07 03:12:42;;;;;;;;;;;;;;;20.17;49.24;95796.69;5095398;28;19912;-61
2021/08/07 03:15:08;;;;;;;;;;;;;;;20.14;49.29;95788.19;5096639;28;19916;-61
2021/08/07 03:17:33;;;;;;;;;;;;;;;20.08;49.43;95795.69;5096891;28;19912;-61
2021/08/07 03:19:59;;;;;;;;;;;;;;;20.11;49.14;95807.88;5090171;28;19965;-60
2021/08/07 03:22:24;;;;;;;;;;;;;;;20.12;49.08;95803.41;5095089;28;19916;-61
2021/08/07 03:24:50;;;;;;;;;;;;;;;20.15;49.17;95813.75;5096476;28;19934;-60
2021/08/07 03:27:15;;;;;;;;;;;;;;;20.12;49.11;95816.66;5076609;28;20346;-61
2021/08/07 03:29:40;;;;;;;;;;;;;;;20.11;49.21;95820.31;5076505;28;19909;-61
2021/08/07 03:32:06;;;;;;;;;;;;;;;20.08;49.17;95824.06;5093034;28;20270;-61
2021/08/07 03:34:31;;;;;;;;;;;;;;;20.14;48.88;95825.34;5087330;28;20317;-61
2021/08/07 03:36:57;;;;;;;;;;;;;;;20.14;48.85;95833.31;5076308;28;20002;-60
2021/08/07 03:39:22;;;;;;;;;;;;;;;20.23;48.79;95840.47;5076003;28;19959;-61
2021/08/07 03:41:48;;;;;;;;;;;;;;;20.29;49.14;95852.34;5076330;28;19912;-61
2021/08/07 03:44:14;;;;;;;;;;;;;;;20.28;48.85;95861.28;5078137;28;19970;-61
2021/08/07 03:46:40;;;;;;;;;;;;;;;20.30;48.90;95872.59;5094919;28;19920;-61
2021/08/07 03:49:05;;;;;;;;;;;;;;;20.39;48.55;95873.59;5095993;28;19958;-60
2021/08/07 03:51:30;;;;;;;;;;;;;;;20.50;48.02;95877.97;5096388;28;19912;-60
2021/08/07 03:53:56;;;;;;;;;;;;;;;20.51;47.89;95869.88;5094480;28;19924;-62
2021/08/07 03:56:21;;;;;;;;;;;;;;;20.57;48.04;95866.66;5095975;28;20006;-62
2021/08/07 03:58:47;;;;;;;;;;;;;;;20.73;47.33;95872.41;5077979;28;19912;-62
2021/08/07 04:01:13;;;;;;;;;;;;;;;21.13;46.59;95879.44;5087472;28;19916;-63
2021/08/07 04:03:38;;;;;;;;;;;;;;;21.57;45.78;95875.47;5076625;28;20306;-61
2021/08/07 04:06:04;;;;;;;;;;;;;;;22.08;44.88;95878.72;5057947;28;19912;-60
2021/08/07 04:08:29;;;;;;;;;;;;;;;22.54;43.53;95885.03;5075848;28;20293;-60
2021/08/07 04:10:54;;;;;;;;;;;;;;;22.97;42.66;95893.38;5084324;28;20016;-61
2021/08/07 04:13:20;;;;;;;;;;;;;;;23.26;42.03;95900.28;5095943;28;20341;-61
2021/08/07 04:15:45;;;;;;;;;;;;;;;23.69;41.38;95915.66;5092863;28;19920;-61
2021/08/07 04:18:11;;;;;;;;;;;;;;;24.12;40.74;95915.75;5075215;28;20286;-61
2021/08/07 04:20:36;;;;;;;;;;;;;;;24.30;39.65;95923.72;5075074;28;20282;-61
2021/08/07 04:23:02;;;;;;;;;;;;;;;24.40;38.94;95922.72;5075488;28;19912;-60
2021/08/07 04:25:27;;;;;;;;;;;;;;;24.55;39.34;95928.31;5076233;28;20290;-60
2021/08/07 04:27:54;;;;;;;;;;;;;;;24.63;38.32;95924.84;5078702;28;19920;-61
2021/08/07 04:30:20;;;;;;;;;;;;;;;24.92;38.65;95937.81;5095200;28;19916;-61
2021/08/07 04:32:45;;;;;;;;;;;;;;;25.18;38.61;95946.72;5095642;28;20372;-60
2021/08/07 04:35:11;;;;;;;;;;;;;;;25.51;38.43;95945.91;5093734;28;19916;-61
2021/08/07 04:37:45;;;;;;;;;;;;;;;25.76;37.04;95956.66;5094726;28;19916;-61
2021/08/07 04:40:11;;;;;;;;;;;;;;;25.69;37.63;95961.84;5091874;28;19924;-61
2021/08/07 04:42:36;;;;;;;;;;;;;;;25.78;36.39;95966.19;5081373;28;19916;-60
2021/08/07 04:45:02;;;;;;;;;;;;;;;26.03;35.97;95973.38;5090398;28;19990;-60
2021/08/07 04:47:27;;;;;;;;;;;;;;;26.18;36.39;95970.81;5085363;28;19915;-60
2021/08/07 04:49:52;;;;;;;;;;;;;;;26.44;36.32;95989.38;5094131;28;20282;-61
2021/08/07 04:52:18;;;;;;;;;;;;;;;26.82;35.35;95982.53;5095022;28;19949;-61
2021/08/07 04:54:43;;;;;;;;;;;;;;;26.93;34.84;95992.88;5094117;28;19920;-61
2021/08/07 04:57:08;;;;;;;;;;;;;;;27.08;34.69;95994.84;5094071;28;19916;-61
2021/08/07 04:59:34;;;;;;;;;;;;;;;27.31;34.31;95991.34;5094663;28;20281;-61
2021/08/07 05:01:59;;;;;;;;;;;;;;;27.55;34.24;95994.88;5095181;28;19922;-61
2021/08/07 05:04:24;;;;;;;;;;;;;;;27.75;33.62;95993.41;5093037;28;19920;-61
2021/08/07 05:06:50;;;;;;;;;;;;;;;27.86;33.71;96008.28;5094512;28;19912;-61
2021/08/07 05:09:15;;;;;;;;;;;;;;;28.05;33.85;96006.09;5094598;28;19927;-61
2021/08/07 05:11:41;;;;;;;;;;;;;;;28.32;33.08;96009.22;5094726;28;20308;-61
2021/08/07 05:14:06;;;;;;;;;;;;;;;28.46;32.29;96015.63;5091996;28;20372;-61
2021/08/07 05:16:31;;;;;;;;;;;;;;;28.22;32.62;96020.22;5094754;28;19912;-61
2021/08/07 05:18:57;;;;;;;;;;;;;;;28.34;33.09;96015.25;5094814;28;19959;-61
2021/08/07 05:21:22;;;;;;;;;;;;;;;28.51;32.92;96018.59;5094606;28;19912;-60
2021/08/07 05:23:47;;;;;;;;;;;;;;;28.80;32.27;96026.03;5076298;28;19918;-61
2021/08/07 05:26:13;;;;;;;;;;;;;;;28.74;31.85;96030.28;5093631;28;19923;-61
2021/08/07 05:28:38;;;;;;;;;;;;;;;28.97;33.56;96035.59;5094518;28;19919;-61
2021/08/07 05:31:04;;;;;;;;;;;;;;;29.14;31.85;96036.22;5094548;28;20351;-62
2021/08/07 05:33:29;;;;;;;;;;;;;;;29.13;32.19;96045.31;5085646;28;19917;-62
2021/08/07 05:35:54;;;;;;;;;;;;;;;29.43;31.20;96049.78;5073750;28;19916;-61
2021/08/07 05:38:20;;;;;;;;;;;;;;;29.51;31.09;96044.31;5074124;28;19945;-61
2021/08/07 05:40:45;;;;;;;;;;;;;;;29.11;31.28;96050.03;5094117;28;19912;-66
2021/08/07 05:43:11;;;;;;;;;;;;;;;28.99;31.46;96055.06;5091043;28;19968;-62
2021/08/07 05:45:36;;;;;;;;;;;;;;;28.85;31.73;96058.59;5074301;28;19923;-65
2021/08/07 05:48:02;;;;;;;;;;;;;;;28.69;32.33;96059.59;5073700;28;19912;-63
2021/08/07 05:50:27;;;;;;;;;;;;;;;28.62;32.68;96063.03;5071609;28;19913;-63
2021/08/07 05:52:52;;;;;;;;;;;;;;;28.71;32.79;96066.47;5073619;28;20286;-70
2021/08/07 05:55:18;;;;;;;;;;;;;;;28.92;32.78;96066.75;5074775;28;19916;-63
2021/08/07 05:57:43;;;;;;;;;;;;;;;29.18;32.22;96062.75;5073734;28;19963;-66
2021/08/07 06:00:09;;;;;;;;;;;;;;;29.11;32.51;96081.53;5073606;28;19912;-64
2021/08/07 06:02:35;;;;;;;;;;;;;;;28.95;32.41;96071.81;5073699;28;19912;-69
2021/08/07 06:05:00;;;;;;;;;;;;;;;28.89;32.17;96065.25;5074702;28;19916;-65
2021/08/07 06:07:25;;;;;;;;;;;;;;;28.93;31.75;96068.41;5073625;28;19915;-64
2021/08/07 06:09:51;;;;;;;;;;;;;;;29.06;31.28;96089.31;5073617;28;19919;-68
2021/08/07 06:12:16;;;;;;;;;;;;;;;28.89;32.31;96086.78;5073348;28;20393;-62
2021/08/07 06:14:42;;;;;;;;;;;;;;;28.89;32.41;96086.78;5090039;28;20378;-68
2021/08/07 06:17:07;;;;;;;;;;;;;;;28.99;31.61;96086.53;5091862;28;19912;-71
2021/08/07 06:19:33;;;;;;;;;;;;;;;28.94;31.74;96080.88;5084840;28;20023;-63
2021/08/07 06:21:58;;;;;;;;;;;;;;;28.68;31.79;96080.28;5093445;28;19912;-67
2021/08/07 06:24:24;;;;;;;;;;;;;;;28.85;31.58;96080.94;5093016;28;19918;-68
2021/08/07 06:26:52;;;;;;;;;;;;;;;29.20;31.82;96090.34;5092684;28;20044;-64
2021/08/07 06:29:17;;;;;;;;;;;;;;;29.51;30.88;96089.25;5092834;28;20015;-72
2021/08/07 06:31:42;;;;;;;;;;;;;;;29.70;31.07;96095.91;5091840;28;20664;-68
2021/08/07 06:34:08;;;;;;;;;;;;;;;29.66;30.52;96097.31;5092438;28;19919;-65
2021/08/07 06:36:33;;;;;;;;;;;;;;;30.02;30.36;96098.31;5092025;28;19912;-72
2021/08/07 06:38:59;;;;;;;;;;;;;;;30.13;29.96;96102.34;5093406;28;19912;-67
2021/08/07 06:41:24;;;;;;;;;;;;;;;30.10;30.30;96103.56;5093470;28;19918;-70
2021/08/07 06:43:50;;;;;;;;;;;;;;;30.34;29.43;96109.59;5090444;28;19916;-65
2021/08/07 06:46:16;;;;;;;;;;;;;;;29.82;30.09;96108.88;5072975;28;19916;-73
2021/08/07 06:48:41;;;;;;;;;;;;;;;29.87;30.34;96114.53;5073106;28;19919;-67
2021/08/07 06:51:07;;;;;;;;;;;;;;;29.81;30.84;96102.66;5075091;28;20064;-68
2021/08/07 06:53:33;;;;;;;;;;;;;;;29.97;29.82;96108.81;5090335;28;19975;-70
2021/08/07 06:55:59;;;;;;;;;;;;;;;30.32;29.37;96106.28;5093276;28;19912;-72
2021/08/07 06:58:24;;;;;;;;;;;;;;;30.55;29.65;96120.56;5075186;28;19961;-74
2021/08/07 07:00:50;;;;;;;;;;;;;;;30.33;29.22;96116.03;5092911;28;19912;-65
2021/08/07 07:03:15;;;;;;;;;;;;;;;29.93;29.58;96112.94;5073289;28;19912;-63
2021/08/07 07:05:40;;;;;;;;;;;;;;;29.68;30.53;96111.44;5087440;28;19962;-62
2021/08/07 07:08:06;;;;;;;;;;;;;;;29.87;30.04;96112.69;5093121;28;19951;-70
2021/08/07 07:10:32;;;;;;;;;;;;;;;29.78;30.35;96124.59;5089521;28;20049;-66
2021/08/07 07:12:58;;;;;;;;;;;;;;;29.79;30.52;96117.38;5073051;28;19912;-66
2021/08/07 07:15:23;;;;;;;;;;;;;;;30.01;30.19;96124.41;5072974;28;19916;-68
2021/08/07 07:17:49;;;;;;;;;;;;;;;30.14;29.07;96120.19;5072985;28;19924;-71
2021/08/07 07:20:14;;;;;;;;;;;;;;;30.11;30.20;96131.34;5086015;28;20008;-61
2021/08/07 07:22:39;;;;;;;;;;;;;;;30.05;30.09;96137.50;5093370;28;20042;-70
2021/08/07 07:25:07;;;;;;;;;;;;;;;30.04;29.42;96141.25;5093107;28;19908;-67
2021/08/07 07:27:32;;;;;;;;;;;;;;;29.84;30.65;96136.47;5090030;28;20007;-64
2021/08/07 07:29:58;;;;;;;;;;;;;;;29.79;29.31;96138.91;5092492;28;20015;-62
2021/08/07 07:32:23;;;;;;;;;;;;;;;29.83;28.60;96137.50;5082712;28;20006;-64
2021/08/07 07:34:49;;;;;;;;;;;;;;;29.52;30.35;96137.53;5076239;28;20002;-65
2021/08/07 07:37:14;;;;;;;;;;;;;;;29.74;30.54;96137.59;5095651;28;20006;-62
2021/08/07 07:39:40;;;;;;;;;;;;;;;30.06;29.44;96139.16;5090297;28;19969;-66
2021/08/07 07:42:06;;;;;;;;;;;;;;;30.13;29.46;96137.41;5077998;28;19924;-67
2021/08/07 07:44:31;;;;;;;;;;;;;;;30.22;30.31;96143.53;5075049;28;19919;-68
2021/08/07 07:46:57;;;;;;;;;;;;;;;30.10;29.64;96138.59;5075263;28;19912;-66
2021/08/07 07:49:22;;;;;;;;;;;;;;;30.59;30.07;96144.25;5074684;28;19912;-62
2021/08/07 07:51:48;;;;;;;;;;;;;;;30.83;29.61;96157.53;5089614;28;19916;-63
2021/08/07 07:54:13;;;;;;;;;;;;;;;31.15;28.25;96142.56;5077989;28;19916;-64
2021/08/07 07:56:39;;;;;;;;;;;;;;;31.34;28.16;96150.16;5076072;28;20442;-66
2021/08/07 07:59:04;;;;;;;;;;;;;;;31.14;28.25;96146.31;5075916;28;19912;-62
2021/08/07 08:01:30;;;;;;;;;;;;;;;30.79;28.91;96148.97;5084276;28;19916;-65
2021/08/07 08:03:55;;;;;;;;;;;;;;;30.68;29.09;96144.09;5096220;28;19948;-61
2021/08/07 08:06:20;;;;;;;;;;;;;;;30.48;29.59;96142.91;5096141;28;19997;-65
2021/08/07 08:08:46;;;;;;;;;;;;;;;30.45;30.08;96145.16;5096123;28;19912;-66
2021/08/07 08:11:11;;;;;;;;;;;;;;;30.38;29.69;96145.13;5084783;28;19924;-67
2021/08/07 08:13:38;;;;;;;;;;;;;;;30.58;28.39;96136.38;5075749;28;19913;-67
2021/08/07 08:16:04;;;;;;;;;;;;;;;30.83;29.34;96144.03;5075701;28;20447;-67
2021/08/07 08:18:29;;;;;;;;;;;;;;;30.89;29.03;96140.56;5075518;28;19920;-69
2021/08/07 08:20:55;;;;;;;;;;;;;;;30.46;29.72;96120.69;5083473;28;19916;-69
2021/08/07 08:23:21;;;;;;;;;;;;;;;30.42;30.14;96126.66;5094723;28;19916;-67
2021/08/07 08:25:47;;;;;;;;;;;;;;;30.93;28.74;96128.31;5075679;28;19917;-67
2021/08/07 08:28:12;;;;;;;;;;;;;;;31.17;28.60;96133.44;5075436;28;19914;-63
2021/08/07 08:30:39;;;;;;;;;;;;;;;31.29;27.79;96139.94;5080842;28;19938;-66
2021/08/07 08:33:05;;;;;;;;;;;;;;;31.21;28.75;96142.81;5095452;28;20445;-70
2021/08/07 08:35:30;;;;;;;;;;;;;;;31.47;26.70;96123.25;5095669;28;19955;-63
2021/08/07 08:37:59;;;;;;;;;;;;;;;31.84;28.34;96127.53;5095519;28;19912;-68
2021/08/07 08:40:25;;;;;;;;;;;;;;;31.91;27.40;96125.66;5095021;28;19946;-65
2021/08/07 08:42:51;;;;;;;;;;;;;;;32.18;25.70;96122.19;5073924;28;19920;-69
2021/08/07 08:45:16;;;;;;;;;;;;;;;32.15;25.16;96131.56;5075236;28;19966;-64
2021/08/07 08:47:42;;;;;;;;;;;;;;;31.70;25.46;96118.53;5082812;28;19975;-68
2021/08/07 08:50:08;;;;;;;;;;;;;;;31.50;26.73;96130.09;5095213;28;19912;-66
2021/08/07 08:52:36;;;;;;;;;;;;;;;31.32;25.77;96115.25;5093356;28;19915;-63
2021/08/07 08:55:02;;;;;;;;;;;;;;;30.96;26.64;96119.00;5075031;28;19916;-64
2021/08/07 08:57:27;;;;;;;;;;;;;;;30.80;27.26;96101.25;5074921;28;20305;-68
2021/08/07 08:59:54;;;;;;;;;;;;;;;31.10;27.08;96114.50;5074740;28;19917;-60
2021/08/07 09:02:19;;;;;;;;;;;;;;;30.89;26.75;96111.72;5089343;28;19927;-66
2021/08/07 09:04:44;;;;;;;;;;;;;;;30.99;27.58;96118.59;5094944;28;19920;-67
2021/08/07 09:07:12;;;;;;;;;;;;;;;31.02;27.02;96115.50;5095008;28;19957;-65
2021/08/07 09:09:39;;;;;;;;;;;;;;;31.10;26.77;96112.66;5070773;28;19922;-69
2021/08/07 09:12:06;;;;;;;;;;;;;;;31.30;26.92;96114.59;5074602;28;19948;-66
2021/08/07 09:14:32;;;;;;;;;;;;;;;31.63;25.94;96107.69;5074547;28;19919;-65
2021/08/07 09:16:58;;;;;;;;;;;;;;;31.80;26.17;96118.13;5074430;28;19912;-64
2021/08/07 09:19:27;;;;;;;;;;;;;;;31.76;25.49;96112.31;5076036;28;19969;-68
2021/08/07 09:22:06;;;;;;;;;;;;;;;31.59;26.34;96112.69;5094831;28;19999;-66
2021/08/07 09:24:32;;;;;;;;;;;;;;;31.49;26.23;96123.88;5094768;28;19915;-64
2021/08/07 09:27:01;;;;;;;;;;;;;;;31.25;26.35;96109.84;5076264;28;19916;-66
2021/08/07 09:29:38;;;;;;;;;;;;;;;31.31;25.76;96091.13;5074468;28;20363;-64
2021/08/07 09:32:04;;;;;;;;;;;;;;;31.34;26.12;96093.44;5074174;28;19912;-65
2021/08/07 09:34:29;;;;;;;;;;;;;;;31.51;26.30;96104.75;5074151;28;19920;-68
2021/08/07 09:36:56;;;;;;;;;;;;;;;31.58;25.43;96104.78;5090625;28;19916;-63
2021/08/07 09:39:35;;;;;;;;;;;;;;;31.48;26.52;96114.09;5094218;28;19912;-62
2021/08/07 09:42:01;;;;;;;;;;;;;;;31.38;26.18;96103.69;5094167;28;20286;-64
2021/08/07 09:44:27;;;;;;;;;;;;;;;31.23;26.97;96095.69;5084513;28;19956;-67
2021/08/07 09:47:04;;;;;;;;;;;;;;;31.36;27.11;96086.00;5074949;28;19923;-62
2021/08/07 09:49:37;;;;;;;;;;;;;;;31.55;27.34;96094.38;5073921;28;19919;-68
2021/08/07 09:52:03;;;;;;;;;;;;;;;31.84;26.92;96097.78;5073871;28;19920;-61
2021/08/07 09:54:54;;;;;;;;;;;;;;;32.06;26.38;96103.88;5080089;28;20263;-68
2021/08/07 09:57:24;;;;;;;;;;;;;;;31.72;25.80;96102.97;5089456;28;20026;-66
2021/08/07 09:59:51;;;;;;;;;;;;;;;31.52;26.24;96107.25;5093943;28;19955;-63
2021/08/07 10:02:20;;;;;;;;;;;;;;;31.59;26.76;96104.56;5075371;28;20301;-69
2021/08/07 10:04:45;;;;;;;;;;;;;;;31.62;25.56;96101.47;5088169;28;19946;-61
2021/08/07 10:07:11;;;;;;;;;;;;;;;31.50;25.66;96085.00;5088603;28;19916;-65
2021/08/07 10:09:37;;;;;;;;;;;;;;;31.54;28.40;96090.00;5093386;28;19942;-65
2021/08/07 10:12:04;;;;;;;;;;;;;;;31.58;25.42;96093.97;5093824;28;19912;-65
2021/08/07 10:14:29;;;;;;;;;;;;;;;31.45;25.54;96109.09;5093386;28;19919;-65
2021/08/07 10:16:55;;;;;;;;;;;;;;;31.59;25.93;96095.63;5092086;28;19912;-61
2021/08/07 10:19:21;;;;;;;;;;;;;;;31.60;25.71;96092.72;5090796;28;19919;-66
2021/08/07 10:21:49;;;;;;;;;;;;;;;31.73;26.49;96107.31;5093401;28;19912;-63
2021/08/07 10:24:15;;;;;;;;;;;;;;;31.54;24.61;96095.41;5092088;28;19923;-67
2021/08/07 10:26:44;;;;;;;;;;;;;;;31.06;25.11;96105.16;5089978;28;19912;-63
2021/08/07 10:29:10;;;;;;;;;;;;;;;30.95;24.32;96103.84;5093197;28;19919;-64
2021/08/07 10:31:36;;;;;;;;;;;;;;;30.88;25.32;96104.63;5092354;28;19915;-63
2021/08/07 10:34:04;;;;;;;;;;;;;;;30.64;26.67;96103.22;5093434;28;19919;-70
2021/08/07 10:36:30;;;;;;;;;;;;;;;30.63;25.92;96110.47;5093445;28;19951;-70
2021/08/07 10:38:56;;;;;;;;;;;;;;;30.59;27.67;96106.50;5092825;28;19963;-63
2021/08/07 10:41:25;;;;;;;;;;;;;;;30.89;26.07;96113.56;5086073;28;19916;-65
2021/08/07 10:43:51;;;;;;;;;;;;;;;30.85;26.43;96107.72;5072906;28;19916;-68
2021/08/07 10:46:17;;;;;;;;;;;;;;;31.00;25.90;96107.59;5072626;28;19919;-66
2021/08/07 10:48:44;;;;;;;;;;;;;;;31.19;25.14;96102.53;5071765;28;19912;-66
2021/08/07 10:51:19;;;;;;;;;;;;;;;31.28;25.31;96105.88;5075340;28;20002;-68
2021/08/07 10:53:45;;;;;;;;;;;;;;;31.11;25.06;96105.38;5087792;28;19931;-64
2021/08/07 10:56:10;;;;;;;;;;;;;;;30.95;24.79;96093.88;5088448;28;20386;-63
2021/08/07 10:58:43;;;;;;;;;;;;;;;30.77;25.63;96094.41;5090228;28;19995;-67
2021/08/07 11:01:27;;;;;;;;;;;;;;;30.71;24.51;96092.44;5088227;28;19911;-65
2021/08/07 11:04:01;;;;;;;;;;;;;;;30.60;25.11;96097.34;5089628;28;19916;-67
2021/08/07 11:06:39;;;;;;;;;;;;;;;30.45;24.12;96089.38;5091162;28;19916;-63
2021/08/07 11:09:25;;;;;;;;;;;;;;;30.49;24.82;96079.84;5077666;28;19916;-66
2021/08/07 11:12:10;;;;;;;;;;;;;;;30.22;26.29;96089.59;5086788;28;19961;-62
2021/08/07 11:14:35;;;;;;;;;;;;;;;30.29;25.38;96084.25;5096834;28;19911;-64
2021/08/07 11:17:04;;;;;;;;;;;;;;;30.27;26.39;96081.75;5080382;28;19923;-63
2021/08/07 11:19:48;;;;;;;;;;;;;;;30.58;25.21;96087.81;5076561;28;20011;-68
2021/08/07 11:22:17;;;;;;;;;;;;;;;30.64;25.69;96093.22;5076563;28;19912;-66
2021/08/07 11:24:49;;;;;;;;;;;;;;;30.64;24.91;96082.44;5076318;28;19919;-65
2021/08/07 11:27:14;;;;;;;;;;;;;;;30.32;24.78;96076.63;5077516;28;19927;-67
2021/08/07 11:29:58;;;;;;;;;;;;;;;30.38;24.85;96078.53;5076475;28;19912;-65
2021/08/07 11:32:24;;;;;;;;;;;;;;;30.20;25.64;96081.72;5076511;28;19966;-71
2021/08/07 11:34:49;;;;;;;;;;;;;;;30.19;25.54;96088.09;5076490;28;20581;-65
2021/08/07 11:37:16;;;;;;;;;;;;;;;30.42;26.02;96089.75;5069340;28;19922;-66
2021/08/07 11:40:00;;;;;;;;;;;;;;;30.29;25.58;96085.09;5096465;28;19912;-67
2021/08/07 11:42:33;;;;;;;;;;;;;;;30.27;26.54;96097.94;5096576;28;19942;-67
2021/08/07 11:45:00;;;;;;;;;;;;;;;30.00;25.56;96085.03;5096298;28;19916;-64
2021/08/07 11:47:25;;;;;;;;;;;;;;;30.02;25.94;96084.84;5084402;28;19920;-64
2021/08/07 11:49:52;;;;;;;;;;;;;;;30.17;25.21;96092.03;5076252;28;19918;-65
2021/08/07 11:52:17;;;;;;;;;;;;;;;30.41;26.19;96088.09;5076160;28;19912;-62
2021/08/07 11:54:43;;;;;;;;;;;;;;;30.67;25.28;96089.28;5076156;28;19970;-71
2021/08/07 11:57:24;;;;;;;;;;;;;;;30.87;26.94;96088.63;5076173;28;20007;-66
2021/08/07 11:59:50;;;;;;;;;;;;;;;30.85;25.12;96096.94;5075974;28;20011;-67
2021/08/07 12:02:15;;;;;;;;;;;;;;;30.73;24.84;96085.81;5076059;28;20361;-66
2021/08/07 12:04:41;;;;;;;;;;;;;;;30.62;25.88;96084.53;5084395;28;20392;-73
2021/08/07 12:07:11;;;;;;;;;;;;;;;30.64;26.20;96092.41;5083075;28;20273;-68
2021/08/07 12:09:36;;;;;;;;;;;;;;;30.70;24.98;96085.41;5075920;28;19916;-66
2021/08/07 12:12:03;;;;;;;;;;;;;;;30.74;25.13;96081.25;5075892;28;19908;-63
2021/08/07 12:14:28;;;;;;;;;;;;;;;30.89;25.04;96079.31;5079380;28;19916;-68
2021/08/07 12:16:54;;;;;;;;;;;;;;;30.99;25.62;96083.50;5094612;28;19923;-67
2021/08/07 12:19:21;;;;;;;;;;;;;;;31.08;25.66;96084.16;5095689;28;20003;-66
2021/08/07 12:21:47;;;;;;;;;;;;;;;31.08;24.70;96076.06;5095687;28;19969;-63
2021/08/07 12:24:13;;;;;;;;;;;;;;;31.04;24.08;96088.31;5079991;28;20354;-70
2021/08/07 12:26:39;;;;;;;;;;;;;;;31.05;24.58;96085.41;5075528;28;19908;-70
2021/08/07 12:29:07;;;;;;;;;;;;;;;31.00;24.33;96077.91;5075250;28;19916;-71
2021/08/07 12:31:38;;;;;;;;;;;;;;;31.04;24.48;96089.16;5081507;28;19911;-69
2021/08/07 12:34:14;;;;;;;;;;;;;;;31.02;23.98;96081.25;5095668;28;20013;-66
2021/08/07 12:36:40;;;;;;;;;;;;;;;31.02;25.06;96083.94;5095658;28;19921;-61
2021/08/07 12:39:05;;;;;;;;;;;;;;;30.91;24.65;96073.69;5095385;28;20327;-61
2021/08/07 12:41:31;;;;;;;;;;;;;;;30.83;25.09;96073.88;5089105;28;19998;-69
2021/08/07 12:43:57;;;;;;;;;;;;;;;30.80;24.80;96068.88;5074944;28;20270;-68
2021/08/07 12:46:23;;;;;;;;;;;;;;;30.87;24.93;96080.53;5075167;28;19916;-72